createdAt,value
2022-10-31T00:02:34.417Z,11.88
2022-10-31T00:05:20.803Z,10.32
2022-10-31T00:08:06.542Z,9.90
2022-10-31T00:10:52.328Z,10.80
2022-10-31T00:13:38.290Z,10.38
2022-10-31T00:16:25.896Z,9.68
2022-10-31T00:19:12.358Z,9.80
2022-10-31T00:21:58.780Z,7.53
2022-10-31T00:24:44.800Z,6.10
2022-10-31T00:27:30.736Z,5.85
2022-10-31T00:30:17.370Z,6.90
2022-10-31T00:33:06.121Z,5.72
2022-10-31T00:35:52.201Z,5.93
2022-10-31T00:38:38.955Z,6.28
2022-10-31T00:41:25.174Z,5.20
2022-10-31T00:44:11.225Z,5.50
2022-10-31T00:46:57.058Z,5.00
2022-10-31T00:49:43.202Z,7.15
2022-10-31T00:52:29.791Z,5.43
2022-10-31T00:55:16.639Z,5.55
2022-10-31T00:58:03.217Z,4.35
2022-10-31T01:00:56.209Z,5.63
2022-10-31T01:03:42.546Z,5.43
2022-10-31T01:06:31.595Z,4.85
2022-10-31T01:09:17.407Z,5.18
2022-10-31T01:12:03.451Z,5.47
2022-10-31T01:14:49.579Z,5.28
2022-10-31T01:17:37.942Z,7.22
2022-10-31T01:20:23.807Z,6.18
2022-10-31T01:23:09.686Z,5.20
2022-10-31T01:26:05.206Z,4.47
2022-10-31T01:29:01.410Z,4.78
2022-10-31T01:31:47.997Z,5.28
2022-10-31T01:34:34.446Z,4.80
2022-10-31T01:37:21.421Z,5.22
2022-10-31T01:40:08.109Z,4.65
2022-10-31T01:42:54.930Z,4.28
2022-10-31T01:45:54.856Z,4.57
2022-10-31T01:48:43.385Z,4.75
2022-10-31T01:51:35.484Z,5.00
2022-10-31T01:54:24.070Z,4.25
2022-10-31T01:57:12.985Z,5.45
2022-10-31T02:00:02.851Z,5.38
2022-10-31T02:03:00.709Z,4.68
2022-10-31T02:05:47.547Z,4.43
2022-10-31T02:08:35.966Z,4.55
2022-10-31T02:11:22.113Z,4.00
2022-10-31T02:14:08.191Z,3.90
2022-10-31T02:16:55.248Z,4.15
2022-10-31T02:19:54.122Z,4.88
2022-10-31T02:23:18.539Z,4.43
2022-10-31T02:26:30.692Z,4.05
2022-10-31T02:29:22.753Z,4.50
2022-10-31T02:32:24.423Z,3.85
2022-10-31T02:35:13.296Z,4.00
2022-10-31T02:38:20.665Z,3.53
2022-10-31T02:41:28.350Z,3.65
2022-10-31T02:44:20.754Z,4.40
2022-10-31T02:47:12.993Z,4.43
2022-10-31T02:50:02.435Z,3.75
2022-10-31T02:52:53.069Z,4.30
2022-10-31T02:55:39.090Z,4.20
2022-10-31T02:58:30.216Z,5.18
2022-10-31T03:01:27.850Z,4.28
2022-10-31T03:04:29.236Z,5.78
2022-10-31T03:07:33.395Z,5.28
2022-10-31T03:10:45.876Z,4.90
2022-10-31T03:14:00.772Z,5.53
2022-10-31T03:16:49.691Z,4.22
2022-10-31T03:19:41.386Z,5.45
2022-10-31T03:22:31.212Z,3.78
2022-10-31T03:25:19.468Z,5.30
2022-10-31T03:28:07.422Z,4.72
2022-10-31T03:30:54.620Z,4.82
2022-10-31T03:33:43.612Z,4.40
2022-10-31T03:36:32.595Z,4.30
2022-10-31T03:39:21.924Z,3.53
2022-10-31T03:42:15.996Z,4.00
2022-10-31T03:45:17.768Z,5.78
2022-10-31T03:48:04.430Z,4.85
2022-10-31T03:50:55.500Z,5.15
2022-10-31T03:53:55.962Z,4.00
2022-10-31T03:56:49.303Z,4.18
2022-10-31T03:59:46.688Z,3.70
2022-10-31T04:02:39.128Z,4.90
2022-10-31T04:05:25.440Z,3.85
2022-10-31T04:08:19.941Z,4.22
2022-10-31T04:11:09.180Z,4.15
2022-10-31T04:14:02.149Z,5.22
2022-10-31T04:16:48.475Z,3.83
2022-10-31T04:19:36.169Z,4.28
2022-10-31T04:22:22.210Z,3.95
2022-10-31T04:25:08.702Z,4.85
2022-10-31T04:27:57.528Z,4.10
2022-10-31T04:30:44.163Z,4.43
2022-10-31T04:33:30.711Z,4.53
2022-10-31T04:36:18.797Z,4.28
2022-10-31T04:39:05.301Z,4.05
2022-10-31T04:42:02.437Z,4.32
2022-10-31T04:44:48.383Z,4.40
2022-10-31T04:47:35.563Z,4.72
2022-10-31T04:50:21.675Z,4.93
2022-10-31T04:53:07.759Z,4.85
2022-10-31T04:56:01.993Z,4.63
2022-10-31T04:58:56.387Z,4.72
2022-10-31T05:01:45.131Z,4.55
2022-10-31T05:04:31.537Z,4.65
2022-10-31T05:07:17.371Z,4.63
2022-10-31T05:10:03.565Z,4.85
2022-10-31T05:12:59.544Z,4.75
2022-10-31T05:16:04.519Z,5.25
2022-10-31T05:19:09.366Z,4.05
2022-10-31T05:22:33.874Z,4.45
2022-10-31T05:25:29.266Z,5.03
2022-10-31T05:28:15.595Z,4.72
2022-10-31T05:31:01.864Z,4.78
2022-10-31T05:33:48.062Z,4.85
2022-10-31T05:37:09.794Z,3.88
2022-10-31T05:39:57.596Z,5.45
2022-10-31T05:42:44.950Z,4.38
2022-10-31T05:45:33.077Z,4.38
2022-10-31T05:48:23.006Z,4.32
2022-10-31T05:51:27.943Z,5.22
2022-10-31T05:54:15.963Z,5.93
2022-10-31T05:57:04.913Z,6.35
2022-10-31T05:59:55.121Z,4.88
2022-10-31T06:02:43.181Z,5.72
2022-10-31T06:05:44.161Z,6.15
2022-10-31T06:08:30.993Z,5.93
2022-10-31T06:11:20.985Z,6.88
2022-10-31T06:14:40.172Z,6.05
2022-10-31T06:17:28.373Z,5.70
2022-10-31T06:20:35.187Z,6.10
2022-10-31T06:23:23.197Z,5.63
2022-10-31T06:26:15.994Z,5.78
2022-10-31T06:29:03.938Z,4.80
2022-10-31T06:32:13.361Z,5.13
2022-10-31T06:35:02.733Z,5.65
2022-10-31T06:37:55.293Z,4.95
2022-10-31T06:40:56.630Z,5.28
2022-10-31T06:43:49.167Z,4.82
2022-10-31T06:46:54.137Z,5.00
2022-10-31T06:49:59.897Z,5.95
2022-10-31T06:52:55.230Z,4.43
2022-10-31T06:55:42.220Z,5.95
2022-10-31T06:58:28.052Z,4.88
2022-10-31T07:01:18.972Z,4.05
2022-10-31T07:04:05.280Z,4.93
2022-10-31T07:06:54.288Z,4.65
2022-10-31T07:09:40.718Z,4.60
2022-10-31T07:12:29.047Z,4.82
2022-10-31T07:15:19.142Z,4.05
2022-10-31T07:18:07.375Z,4.15
2022-10-31T07:20:54.325Z,4.50
2022-10-31T07:23:40.818Z,4.03
2022-10-31T07:26:48.389Z,5.45
2022-10-31T07:29:34.478Z,3.95
2022-10-31T07:32:20.401Z,4.28
2022-10-31T07:35:15.779Z,4.38
2022-10-31T07:38:11.622Z,4.60
2022-10-31T07:40:57.679Z,4.35
2022-10-31T07:43:44.665Z,4.80
2022-10-31T07:46:54.442Z,5.40
2022-10-31T07:49:59.236Z,4.47
2022-10-31T07:53:06.533Z,4.28
2022-10-31T07:56:09.078Z,5.40
2022-10-31T07:58:55.060Z,5.90
2022-10-31T08:01:41.026Z,4.97
2022-10-31T08:04:45.889Z,7.07
2022-10-31T08:07:50.819Z,5.53
2022-10-31T08:10:43.610Z,6.32
2022-10-31T08:13:30.582Z,5.78
2022-10-31T08:16:19.393Z,5.50
2022-10-31T08:19:13.455Z,5.03
2022-10-31T08:22:01.199Z,5.47
2022-10-31T08:24:47.424Z,5.55
2022-10-31T08:27:33.758Z,4.95
2022-10-31T08:30:22.360Z,5.07
2022-10-31T08:33:28.674Z,4.90
2022-10-31T08:36:33.674Z,4.97
2022-10-31T08:39:31.250Z,4.32
2022-10-31T08:42:20.463Z,5.70
2022-10-31T08:45:07.362Z,4.40
2022-10-31T08:47:58.408Z,5.15
2022-10-31T08:50:47.218Z,4.63
2022-10-31T08:53:33.527Z,4.47
2022-10-31T08:56:42.070Z,5.03
2022-10-31T08:59:57.940Z,5.32
2022-10-31T09:02:46.355Z,4.70
2022-10-31T09:05:37.001Z,4.47
2022-10-31T09:08:23.397Z,4.50
2022-10-31T09:11:10.845Z,4.07
2022-10-31T09:14:15.633Z,3.67
2022-10-31T09:17:21.903Z,4.22
2022-10-31T09:20:31.665Z,6.40
2022-10-31T09:23:21.213Z,3.80
2022-10-31T09:26:07.983Z,4.30
2022-10-31T09:29:03.041Z,4.57
2022-10-31T09:31:51.949Z,4.80
2022-10-31T09:34:53.446Z,4.38
2022-10-31T09:37:40.238Z,3.90
2022-10-31T09:40:36.014Z,4.28
2022-10-31T09:44:02.591Z,3.88
2022-10-31T09:46:51.676Z,3.20
2022-10-31T09:50:13.774Z,3.40
2022-10-31T09:53:40.893Z,3.42
2022-10-31T09:56:29.696Z,4.07
2022-10-31T09:59:46.484Z,3.53
2022-10-31T10:02:41.283Z,3.47
2022-10-31T10:05:40.573Z,3.10
2022-10-31T10:11:35.085Z,4.07
2022-10-31T10:14:55.745Z,3.22
2022-10-31T10:17:47.754Z,3.47
2022-10-31T10:20:49.193Z,4.13
2022-10-31T10:24:15.214Z,4.65
2022-10-31T10:27:17.934Z,3.33
2022-10-31T10:30:21.762Z,3.20
2022-10-31T10:33:12.894Z,3.55
2022-10-31T10:36:06.589Z,3.42
2022-10-31T10:38:54.702Z,3.50
2022-10-31T10:41:44.871Z,3.25
2022-10-31T10:44:49.290Z,3.35
2022-10-31T10:47:43.885Z,3.25
2022-10-31T10:50:38.217Z,4.07
2022-10-31T10:54:00.210Z,3.30
2022-10-31T10:56:58.687Z,3.22
2022-10-31T10:59:46.445Z,2.83
2022-10-31T11:02:33.863Z,2.53
2022-10-31T11:05:46.052Z,3.30
2022-10-31T11:08:34.848Z,3.78
2022-10-31T11:11:26.768Z,2.42
2022-10-31T11:14:15.930Z,4.22
2022-10-31T11:17:17.757Z,3.38
2022-10-31T11:20:16.284Z,3.00
2022-10-31T11:23:19.652Z,3.13
2022-10-31T11:26:07.538Z,2.75
2022-10-31T11:28:58.536Z,2.92
2022-10-31T11:31:47.188Z,2.78
2022-10-31T11:34:44.532Z,2.22
2022-10-31T11:37:41.855Z,2.50
2022-10-31T11:40:28.686Z,2.58
2022-10-31T11:43:18.614Z,3.15
2022-10-31T11:46:22.100Z,2.75
2022-10-31T11:49:20.811Z,2.00
2022-10-31T11:52:23.226Z,2.92
2022-10-31T11:55:30.386Z,1.90
2022-10-31T11:58:25.117Z,1.98
2022-10-31T12:01:27.479Z,1.90
2022-10-31T12:04:17.988Z,1.70
2022-10-31T12:07:04.018Z,1.70
2022-10-31T12:09:50.826Z,2.08
2022-10-31T12:12:52.267Z,2.40
2022-10-31T12:15:46.004Z,2.00
2022-10-31T12:18:49.898Z,2.20
2022-10-31T12:22:05.101Z,2.22
2022-10-31T12:25:06.312Z,1.75
2022-10-31T12:28:00.421Z,2.03
2022-10-31T12:31:01.863Z,1.90
2022-10-31T12:33:56.969Z,2.13
2022-10-31T12:36:54.614Z,2.45
2022-10-31T12:40:18.404Z,1.90
2022-10-31T12:43:21.895Z,1.90
2022-10-31T12:46:38.937Z,2.53
2022-10-31T12:49:41.454Z,1.90
2022-10-31T12:52:33.541Z,1.70
2022-10-31T12:55:53.987Z,2.33
2022-10-31T12:59:00.044Z,2.50
2022-10-31T13:01:53.910Z,2.75
2022-10-31T13:04:52.702Z,2.40
2022-10-31T13:07:44.872Z,2.25
2022-10-31T13:10:43.161Z,3.50
2022-10-31T13:13:38.803Z,3.72
2022-10-31T13:16:48.381Z,2.55
2022-10-31T13:19:43.805Z,2.67
2022-10-31T13:22:36.543Z,2.50
2022-10-31T13:25:26.423Z,2.47
2022-10-31T13:28:41.793Z,2.20
2022-10-31T13:31:28.441Z,2.08
2022-10-31T13:34:29.190Z,2.20
2022-10-31T13:37:45.361Z,1.95
2022-10-31T13:40:57.530Z,1.80
2022-10-31T13:44:15.887Z,2.15
2022-10-31T13:47:02.043Z,1.67
2022-10-31T13:49:48.244Z,1.75
2022-10-31T13:52:34.256Z,2.05
2022-10-31T13:55:43.611Z,2.05
2022-10-31T13:58:31.809Z,2.10
2022-10-31T14:01:21.178Z,1.77
2022-10-31T14:04:25.582Z,2.20
2022-10-31T14:07:17.777Z,2.33
2022-10-31T14:10:23.943Z,2.42
2022-10-31T14:13:18.325Z,2.13
2022-10-31T14:16:20.537Z,2.65
2022-10-31T14:19:13.663Z,1.60
2022-10-31T14:22:00.056Z,1.67
2022-10-31T14:24:46.299Z,1.83
2022-10-31T14:27:35.344Z,1.95
2022-10-31T14:30:25.303Z,2.13
2022-10-31T14:33:20.515Z,2.10
2022-10-31T14:36:36.321Z,2.20
2022-10-31T14:39:28.504Z,1.92
2022-10-31T14:42:28.483Z,2.10
2022-10-31T14:45:32.709Z,2.22
2022-10-31T14:48:43.380Z,2.10
2022-10-31T14:51:39.694Z,2.78
2022-10-31T14:54:31.931Z,2.65
2022-10-31T14:57:25.953Z,2.90
2022-10-31T15:00:23.666Z,2.60
2022-10-31T15:03:22.410Z,3.00
2022-10-31T15:06:15.146Z,3.88
2022-10-31T15:09:01.346Z,2.83
2022-10-31T15:11:47.637Z,3.20
2022-10-31T15:14:33.823Z,3.25
2022-10-31T15:17:22.569Z,2.67
2022-10-31T15:20:11.265Z,3.08
2022-10-31T15:23:02.242Z,2.67
2022-10-31T15:25:48.956Z,3.10
2022-10-31T15:28:35.052Z,3.30
2022-10-31T15:31:21.099Z,3.15
2022-10-31T15:34:34.149Z,3.22
2022-10-31T15:37:22.605Z,3.80
2022-10-31T15:40:18.179Z,3.10
2022-10-31T15:43:07.876Z,3.75
2022-10-31T15:45:54.002Z,3.55
2022-10-31T15:48:47.477Z,3.38
2022-10-31T15:51:38.237Z,3.60
2022-10-31T15:54:24.368Z,4.07
2022-10-31T15:57:14.883Z,3.72
2022-10-31T16:00:01.809Z,3.67
2022-10-31T16:03:02.103Z,3.80
2022-10-31T16:05:56.516Z,2.97
2022-10-31T16:08:50.089Z,3.85
2022-10-31T16:11:40.184Z,4.20
2022-10-31T16:14:34.618Z,3.72
2022-10-31T16:17:24.484Z,3.90
2022-10-31T16:20:22.056Z,5.57
2022-10-31T16:23:17.644Z,4.30
2022-10-31T16:26:08.601Z,4.35
2022-10-31T16:29:03.401Z,5.18
2022-10-31T16:31:51.220Z,4.45
2022-10-31T16:34:37.237Z,4.35
2022-10-31T16:37:23.053Z,5.85
2022-10-31T16:40:11.870Z,4.88
2022-10-31T16:43:02.365Z,3.97
2022-10-31T16:45:51.426Z,4.38
2022-10-31T16:48:37.946Z,4.55
2022-10-31T16:51:23.843Z,4.03
2022-10-31T16:54:11.519Z,5.40
2022-10-31T16:57:00.806Z,5.03
2022-10-31T16:59:52.672Z,5.93
2022-10-31T17:02:39.085Z,5.63
2022-10-31T17:05:33.406Z,6.40
2022-10-31T17:11:06.736Z,5.05
2022-10-31T17:13:53.539Z,4.47
2022-10-31T17:16:39.367Z,5.18
2022-10-31T17:19:25.515Z,5.93
2022-10-31T17:22:13.252Z,6.50
2022-10-31T17:24:59.293Z,7.55
2022-10-31T17:27:47.351Z,7.75
2022-10-31T17:30:38.219Z,7.22
2022-10-31T17:33:24.671Z,7.70
2022-10-31T17:36:10.483Z,8.80
2022-10-31T17:38:56.389Z,9.38
2022-10-31T17:41:42.177Z,9.85
2022-10-31T17:44:28.272Z,10.63
2022-10-31T17:47:14.301Z,10.60
2022-10-31T17:50:00.371Z,11.70
2022-10-31T17:52:47.138Z,11.43
2022-10-31T17:55:36.235Z,15.90
2022-10-31T17:58:23.346Z,13.25
2022-10-31T18:01:12.113Z,12.90
2022-10-31T18:03:58.124Z,14.82
2022-10-31T18:06:44.354Z,14.73
2022-10-31T18:09:30.388Z,15.75
2022-10-31T18:12:17.823Z,15.27
2022-10-31T18:15:04.510Z,15.48
2022-10-31T18:17:50.650Z,15.23
2022-10-31T18:20:36.551Z,16.80
2022-10-31T18:23:22.407Z,17.38
2022-10-31T18:26:08.310Z,16.17
2022-10-31T18:28:54.879Z,17.60
2022-10-31T18:31:40.837Z,20.02
2022-10-31T18:34:26.973Z,20.63
2022-10-31T18:37:13.258Z,21.10
2022-10-31T18:39:59.042Z,22.20
2022-10-31T18:42:48.039Z,19.75
2022-10-31T18:45:46.555Z,21.52
2022-10-31T18:48:34.518Z,21.38
2022-10-31T18:51:21.869Z,21.67
2022-10-31T18:54:09.589Z,23.10
2022-10-31T18:56:56.948Z,22.58
2022-10-31T18:59:43.214Z,21.23
2022-10-31T19:02:29.113Z,21.33
2022-10-31T19:05:15.041Z,22.65
2022-10-31T19:08:01.048Z,21.75
2022-10-31T19:10:46.917Z,22.60
2022-10-31T19:13:34.688Z,22.80
2022-10-31T19:16:21.253Z,22.63
2022-10-31T19:19:07.428Z,22.33
2022-10-31T19:21:54.597Z,22.25
2022-10-31T19:24:41.291Z,22.38
2022-10-31T19:27:29.682Z,21.83
2022-10-31T19:30:15.631Z,21.58
2022-10-31T19:33:01.486Z,20.48
2022-10-31T19:35:47.973Z,20.80
2022-10-31T19:38:35.000Z,22.67
2022-10-31T19:41:28.994Z,20.58
2022-10-31T19:44:16.139Z,19.08
2022-10-31T19:47:02.522Z,18.30
2022-10-31T19:49:49.287Z,20.20
2022-10-31T19:52:36.021Z,20.73
2022-10-31T19:55:22.011Z,18.85
2022-10-31T19:58:08.268Z,19.15
2022-10-31T20:00:55.121Z,18.75
2022-10-31T20:03:43.032Z,19.08
2022-10-31T20:06:33.380Z,18.90
2022-10-31T20:09:19.187Z,17.77
2022-10-31T20:12:05.640Z,18.10
2022-10-31T20:14:51.576Z,17.17
2022-10-31T20:17:37.525Z,17.55
2022-10-31T20:20:23.406Z,17.88
2022-10-31T20:23:09.319Z,16.98
2022-10-31T20:25:57.557Z,16.23
2022-10-31T20:28:46.371Z,16.35
2022-10-31T20:31:36.216Z,16.83
2022-10-31T20:34:22.471Z,15.60
2022-10-31T20:37:08.502Z,14.30
2022-10-31T20:39:56.591Z,13.40
2022-10-31T20:42:42.912Z,13.40
2022-10-31T20:45:29.958Z,11.32
2022-10-31T20:48:16.045Z,11.32
2022-10-31T20:51:06.541Z,8.10
2022-10-31T20:53:54.064Z,8.63
2022-10-31T20:56:40.358Z,8.80
2022-10-31T20:59:27.236Z,9.48
2022-10-31T21:02:13.239Z,10.00
2022-10-31T21:04:59.583Z,10.20
2022-10-31T21:07:45.587Z,11.27
2022-10-31T21:10:31.368Z,10.68
2022-10-31T21:13:17.748Z,9.60
2022-10-31T21:16:06.726Z,9.82
2022-10-31T21:18:53.301Z,12.05
2022-10-31T21:21:39.639Z,11.35
2022-10-31T21:24:28.814Z,11.00
2022-10-31T21:27:14.849Z,10.80
2022-10-31T21:30:01.451Z,9.98
2022-10-31T21:32:47.609Z,9.82
2022-10-31T21:35:33.394Z,7.03
2022-10-31T21:38:19.342Z,8.07
2022-10-31T21:41:09.057Z,7.20
2022-10-31T21:43:55.267Z,7.32
2022-10-31T21:46:42.447Z,7.05
2022-10-31T21:49:28.950Z,6.78
2022-10-31T21:52:14.917Z,7.85
2022-10-31T21:55:00.788Z,7.55
2022-10-31T21:57:46.980Z,6.93
2022-10-31T22:00:32.840Z,7.63
2022-10-31T22:03:18.698Z,7.28
2022-10-31T22:06:07.258Z,8.10
2022-10-31T22:08:54.045Z,7.03
2022-10-31T22:11:41.586Z,7.10
2022-10-31T22:14:27.592Z,6.65
2022-10-31T22:17:13.878Z,6.90
2022-10-31T22:20:00.655Z,7.53
2022-10-31T22:22:48.302Z,6.97
2022-10-31T22:25:37.565Z,6.68
2022-10-31T22:28:23.445Z,6.30
2022-10-31T22:34:02.738Z,4.80
2022-10-31T22:36:51.614Z,4.80
2022-10-31T22:39:37.565Z,4.20
2022-10-31T22:42:23.555Z,4.45
2022-10-31T22:45:10.945Z,4.32
2022-10-31T22:47:57.260Z,4.72
2022-10-31T22:50:44.748Z,4.00
2022-10-31T22:53:31.013Z,4.50
2022-10-31T22:56:19.602Z,4.43
2022-10-31T22:59:11.895Z,4.32
2022-10-31T23:01:58.380Z,3.78
2022-10-31T23:04:44.454Z,3.33
2022-10-31T23:07:33.220Z,3.78
2022-10-31T23:10:19.273Z,2.83
2022-10-31T23:13:23.894Z,3.63
2022-10-31T23:16:11.959Z,2.60
2022-10-31T23:18:58.676Z,1.85
2022-10-31T23:22:16.306Z,1.73
2022-10-31T23:25:02.688Z,1.58
2022-10-31T23:27:48.580Z,2.28
2022-10-31T23:30:36.072Z,2.50
2022-10-31T23:33:22.218Z,2.13
2022-10-31T23:36:08.555Z,2.10
2022-10-31T23:38:54.542Z,3.17
2022-10-31T23:41:40.751Z,2.83
2022-10-31T23:44:26.568Z,3.28
2022-10-31T23:47:13.177Z,2.97
2022-10-31T23:49:59.587Z,3.13
2022-10-31T23:52:45.686Z,2.83
2022-10-31T23:55:31.878Z,4.75
2022-10-31T23:58:17.918Z,4.32
